sensor_id;sensor_type;location;lat;lon;timestamp;temperature;humidity
1155;DHT22;566;48.414;9.118;2023-03-01T00:00:40;-4.60;91.90
1155;DHT22;566;48.414;9.118;2023-03-01T00:03:05;-4.70;91.70
1155;DHT22;566;48.414;9.118;2023-03-01T00:05:31;-4.70;90.80
1155;DHT22;566;48.414;9.118;2023-03-01T00:07:57;-4.60;89.80
1155;DHT22;566;48.414;9.118;2023-03-01T00:10:26;-4.60;90.20
1155;DHT22;566;48.414;9.118;2023-03-01T00:12:51;-4.60;90.00
1155;DHT22;566;48.414;9.118;2023-03-01T00:15:20;-4.60;90.40
1155;DHT22;566;48.414;9.118;2023-03-01T00:17:45;-4.60;89.20
1155;DHT22;566;48.414;9.118;2023-03-01T00:20:14;-4.60;89.90
1155;DHT22;566;48.414;9.118;2023-03-01T00:22:39;-4.60;88.70
1155;DHT22;566;48.414;9.118;2023-03-01T00:25:05;-4.60;89.70
1155;DHT22;566;48.414;9.118;2023-03-01T00:27:31;-4.60;90.20
1155;DHT22;566;48.414;9.118;2023-03-01T00:29:59;-4.60;88.50
1155;DHT22;566;48.414;9.118;2023-03-01T00:32:28;-4.60;89.30
1155;DHT22;566;48.414;9.118;2023-03-01T00:34:53;-4.60;89.20
1155;DHT22;566;48.414;9.118;2023-03-01T00:37:24;-4.60;90.30
1155;DHT22;566;48.414;9.118;2023-03-01T00:39:50;-4.70;90.00
1155;DHT22;566;48.414;9.118;2023-03-01T00:42:16;-4.70;90.00
1155;DHT22;566;48.414;9.118;2023-03-01T00:44:42;-4.80;89.70
1155;DHT22;566;48.414;9.118;2023-03-01T00:47:10;-4.90;89.60
1155;DHT22;566;48.414;9.118;2023-03-01T00:49:36;-4.90;89.00
1155;DHT22;566;48.414;9.118;2023-03-01T00:52:02;-5.00;88.30
1155;DHT22;566;48.414;9.118;2023-03-01T00:54:27;-5.10;89.00
1155;DHT22;566;48.414;9.118;2023-03-01T00:56:56;-5.10;87.50
1155;DHT22;566;48.414;9.118;2023-03-01T00:59:21;-4.90;88.00
1155;DHT22;566;48.414;9.118;2023-03-01T01:01:50;-5.00;88.70
1155;DHT22;566;48.414;9.118;2023-03-01T01:04:15;-5.00;88.10
1155;DHT22;566;48.414;9.118;2023-03-01T01:06:43;-5.00;88.40
1155;DHT22;566;48.414;9.118;2023-03-01T01:09:11;-5.10;89.30
1155;DHT22;566;48.414;9.118;2023-03-01T01:11:46;-5.10;87.70
1155;DHT22;566;48.414;9.118;2023-03-01T01:14:12;-4.90;88.50
1155;DHT22;566;48.414;9.118;2023-03-01T01:16:38;-5.00;89.10
1155;DHT22;566;48.414;9.118;2023-03-01T01:19:03;-5.10;89.30
1155;DHT22;566;48.414;9.118;2023-03-01T01:21:29;-5.10;88.10
1155;DHT22;566;48.414;9.118;2023-03-01T01:23:55;-5.00;88.20
1155;DHT22;566;48.414;9.118;2023-03-01T01:26:24;-5.00;88.40
1155;DHT22;566;48.414;9.118;2023-03-01T01:28:50;-5.00;87.70
1155;DHT22;566;48.414;9.118;2023-03-01T01:31:17;-4.90;86.70
1155;DHT22;566;48.414;9.118;2023-03-01T01:33:43;-4.80;86.60
1155;DHT22;566;48.414;9.118;2023-03-01T01:36:09;-4.70;86.80
1155;DHT22;566;48.414;9.118;2023-03-01T01:38:37;-4.60;86.10
1155;DHT22;566;48.414;9.118;2023-03-01T01:41:03;-4.40;85.90
1155;DHT22;566;48.414;9.118;2023-03-01T01:43:44;-4.30;86.10
1155;DHT22;566;48.414;9.118;2023-03-01T01:46:29;-4.20;85.60
1155;DHT22;566;48.414;9.118;2023-03-01T01:49:07;-4.00;86.40
1155;DHT22;566;48.414;9.118;2023-03-01T01:51:41;-3.90;86.90
1155;DHT22;566;48.414;9.118;2023-03-01T01:54:13;-3.80;87.60
1155;DHT22;566;48.414;9.118;2023-03-01T01:56:42;-3.70;87.20
1155;DHT22;566;48.414;9.118;2023-03-01T01:59:10;-3.60;88.20
1155;DHT22;566;48.414;9.118;2023-03-01T02:01:36;-3.50;88.30
1155;DHT22;566;48.414;9.118;2023-03-01T02:04:02;-3.50;90.00
1155;DHT22;566;48.414;9.118;2023-03-01T02:06:39;-3.40;90.00
1155;DHT22;566;48.414;9.118;2023-03-01T02:09:13;-3.40;91.30
1155;DHT22;566;48.414;9.118;2023-03-01T02:11:43;-3.40;91.30
1155;DHT22;566;48.414;9.118;2023-03-01T02:14:09;-3.30;91.10
1155;DHT22;566;48.414;9.118;2023-03-01T02:16:37;-3.10;90.70
1155;DHT22;566;48.414;9.118;2023-03-01T02:19:06;-3.10;92.20
1155;DHT22;566;48.414;9.118;2023-03-01T02:26:48;-2.70;94.10
1155;DHT22;566;48.414;9.118;2023-03-01T02:29:15;-2.60;95.30
1155;DHT22;566;48.414;9.118;2023-03-01T02:31:44;-2.50;96.50
1155;DHT22;566;48.414;9.118;2023-03-01T02:34:15;-2.40;95.90
1155;DHT22;566;48.414;9.118;2023-03-01T02:36:47;-2.30;97.40
1155;DHT22;566;48.414;9.118;2023-03-01T02:39:24;-2.20;98.00
1155;DHT22;566;48.414;9.118;2023-03-01T02:41:54;-2.20;98.00
1155;DHT22;566;48.414;9.118;2023-03-01T02:44:22;-2.10;98.00
1155;DHT22;566;48.414;9.118;2023-03-01T02:46:50;-2.00;98.00
1155;DHT22;566;48.414;9.118;2023-03-01T02:49:38;-2.00;98.00
1155;DHT22;566;48.414;9.118;2023-03-01T02:52:26;-1.90;98.00
1155;DHT22;566;48.414;9.118;2023-03-01T02:57:27;-1.70;98.00
1155;DHT22;566;48.414;9.118;2023-03-01T02:59:54;-1.70;98.00
1155;DHT22;566;48.414;9.118;2023-03-01T03:02:21;-1.70;98.00
1155;DHT22;566;48.414;9.118;2023-03-01T03:05:02;-1.70;98.00
1155;DHT22;566;48.414;9.118;2023-03-01T03:07:28;-1.60;98.00
1155;DHT22;566;48.414;9.118;2023-03-01T03:09:53;-1.70;98.00
1155;DHT22;566;48.414;9.118;2023-03-01T03:12:19;-1.70;98.00
1155;DHT22;566;48.414;9.118;2023-03-01T03:14:47;-1.70;98.00
1155;DHT22;566;48.414;9.118;2023-03-01T03:17:13;-1.70;98.00
1155;DHT22;566;48.414;9.118;2023-03-01T03:19:41;-1.70;98.00
1155;DHT22;566;48.414;9.118;2023-03-01T03:22:11;-1.60;98.00
1155;DHT22;566;48.414;9.118;2023-03-01T03:24:36;-1.70;98.00
1155;DHT22;566;48.414;9.118;2023-03-01T03:27:06;-1.70;98.00
1155;DHT22;566;48.414;9.118;2023-03-01T03:29:32;-1.70;98.00
1155;DHT22;566;48.414;9.118;2023-03-01T03:31:58;-1.70;98.00
1155;DHT22;566;48.414;9.118;2023-03-01T03:34:23;-1.90;98.00
1155;DHT22;566;48.414;9.118;2023-03-01T03:36:56;-1.90;98.00
1155;DHT22;566;48.414;9.118;2023-03-01T03:39:28;-1.90;98.00
1155;DHT22;566;48.414;9.118;2023-03-01T03:41:54;-1.80;98.00
1155;DHT22;566;48.414;9.118;2023-03-01T03:44:21;-1.80;98.00
1155;DHT22;566;48.414;9.118;2023-03-01T03:46:46;-1.70;98.00
1155;DHT22;566;48.414;9.118;2023-03-01T03:49:12;-1.70;98.00
1155;DHT22;566;48.414;9.118;2023-03-01T03:51:37;-1.70;98.00
1155;DHT22;566;48.414;9.118;2023-03-01T03:54:03;-1.70;98.00
1155;DHT22;566;48.414;9.118;2023-03-01T03:56:28;-1.70;98.00
1155;DHT22;566;48.414;9.118;2023-03-01T03:58:54;-1.70;98.00
1155;DHT22;566;48.414;9.118;2023-03-01T04:01:20;-1.70;98.00
1155;DHT22;566;48.414;9.118;2023-03-01T04:03:45;-1.70;98.00
1155;DHT22;566;48.414;9.118;2023-03-01T04:06:19;-1.70;98.00
1155;DHT22;566;48.414;9.118;2023-03-01T04:08:45;-1.80;98.00
1155;DHT22;566;48.414;9.118;2023-03-01T04:11:13;-1.80;98.00
1155;DHT22;566;48.414;9.118;2023-03-01T04:13:56;-1.90;98.00
1155;DHT22;566;48.414;9.118;2023-03-01T04:16:22;-1.90;98.00
1155;DHT22;566;48.414;9.118;2023-03-01T04:18:52;-1.90;98.00
1155;DHT22;566;48.414;9.118;2023-03-01T04:21:21;-1.90;98.00
1155;DHT22;566;48.414;9.118;2023-03-01T04:23:47;-1.90;98.00
1155;DHT22;566;48.414;9.118;2023-03-01T04:26:13;-1.90;98.00
1155;DHT22;566;48.414;9.118;2023-03-01T04:28:42;-2.00;98.00
1155;DHT22;566;48.414;9.118;2023-03-01T04:31:13;-2.00;98.00
1155;DHT22;566;48.414;9.118;2023-03-01T04:33:40;-2.00;98.00
1155;DHT22;566;48.414;9.118;2023-03-01T04:36:07;-2.00;98.00
1155;DHT22;566;48.414;9.118;2023-03-01T04:38:34;-2.00;98.00
1155;DHT22;566;48.414;9.118;2023-03-01T04:41:00;-1.90;98.00
1155;DHT22;566;48.414;9.118;2023-03-01T04:43:25;-1.90;98.00
1155;DHT22;566;48.414;9.118;2023-03-01T04:45:51;-1.90;98.00
1155;DHT22;566;48.414;9.118;2023-03-01T04:48:17;-2.00;98.00
1155;DHT22;566;48.414;9.118;2023-03-01T04:50:42;-2.10;98.00
1155;DHT22;566;48.414;9.118;2023-03-01T04:53:08;-2.20;98.00
1155;DHT22;566;48.414;9.118;2023-03-01T04:55:33;-2.20;98.00
1155;DHT22;566;48.414;9.118;2023-03-01T04:57:59;-2.20;98.00
1155;DHT22;566;48.414;9.118;2023-03-01T05:00:24;-2.20;98.00
1155;DHT22;566;48.414;9.118;2023-03-01T05:02:51;-2.30;98.00
1155;DHT22;566;48.414;9.118;2023-03-01T05:05:20;-2.30;98.00
1155;DHT22;566;48.414;9.118;2023-03-01T05:07:48;-2.30;98.00
1155;DHT22;566;48.414;9.118;2023-03-01T05:10:17;-2.30;98.00
1155;DHT22;566;48.414;9.118;2023-03-01T05:12:43;-2.30;98.00
1155;DHT22;566;48.414;9.118;2023-03-01T05:15:08;-2.30;98.00
1155;DHT22;566;48.414;9.118;2023-03-01T05:17:34;-2.30;98.00
1155;DHT22;566;48.414;9.118;2023-03-01T05:20:00;-2.20;98.00
1155;DHT22;566;48.414;9.118;2023-03-01T05:22:26;-2.20;98.00
1155;DHT22;566;48.414;9.118;2023-03-01T05:24:55;-2.20;98.00
1155;DHT22;566;48.414;9.118;2023-03-01T05:27:20;-2.10;98.00
1155;DHT22;566;48.414;9.118;2023-03-01T05:29:47;-2.10;98.00
1155;DHT22;566;48.414;9.118;2023-03-01T05:32:13;-2.10;98.00
1155;DHT22;566;48.414;9.118;2023-03-01T05:34:41;-2.20;98.00
1155;DHT22;566;48.414;9.118;2023-03-01T05:37:07;-2.10;98.00
1155;DHT22;566;48.414;9.118;2023-03-01T05:39:33;-2.10;98.00
1155;DHT22;566;48.414;9.118;2023-03-01T05:42:00;-2.10;98.00
1155;DHT22;566;48.414;9.118;2023-03-01T05:44:27;-2.10;98.00
1155;DHT22;566;48.414;9.118;2023-03-01T05:46:53;-2.10;98.00
1155;DHT22;566;48.414;9.118;2023-03-01T05:49:21;-2.00;98.00
1155;DHT22;566;48.414;9.118;2023-03-01T05:51:55;-2.00;98.00
1155;DHT22;566;48.414;9.118;2023-03-01T05:54:29;-2.00;98.00
1155;DHT22;566;48.414;9.118;2023-03-01T05:56:55;-2.10;98.00
1155;DHT22;566;48.414;9.118;2023-03-01T05:59:21;-2.10;98.00
1155;DHT22;566;48.414;9.118;2023-03-01T06:01:47;-2.10;98.00
1155;DHT22;566;48.414;9.118;2023-03-01T06:04:12;-2.00;98.00
1155;DHT22;566;48.414;9.118;2023-03-01T06:06:38;-2.10;98.00
1155;DHT22;566;48.414;9.118;2023-03-01T06:09:05;-2.10;98.00
1155;DHT22;566;48.414;9.118;2023-03-01T06:11:33;-2.10;98.00
1155;DHT22;566;48.414;9.118;2023-03-01T06:14:03;-2.10;98.00
1155;DHT22;566;48.414;9.118;2023-03-01T06:16:31;-2.10;98.00
1155;DHT22;566;48.414;9.118;2023-03-01T06:19:00;-2.10;98.00
1155;DHT22;566;48.414;9.118;2023-03-01T06:21:25;-2.10;98.00
1155;DHT22;566;48.414;9.118;2023-03-01T06:23:52;-2.10;98.00
1155;DHT22;566;48.414;9.118;2023-03-01T06:26:18;-2.10;98.00
1155;DHT22;566;48.414;9.118;2023-03-01T06:28:44;-2.10;98.00
1155;DHT22;566;48.414;9.118;2023-03-01T06:31:11;-2.00;98.00
1155;DHT22;566;48.414;9.118;2023-03-01T06:33:37;-2.00;98.00
1155;DHT22;566;48.414;9.118;2023-03-01T06:36:02;-1.90;98.00
1155;DHT22;566;48.414;9.118;2023-03-01T06:38:28;-1.90;98.00
1155;DHT22;566;48.414;9.118;2023-03-01T06:40:54;-1.90;98.00
1155;DHT22;566;48.414;9.118;2023-03-01T06:43:24;-1.80;98.00
1155;DHT22;566;48.414;9.118;2023-03-01T06:45:50;-1.80;98.00
1155;DHT22;566;48.414;9.118;2023-03-01T06:48:16;-1.80;98.00
1155;DHT22;566;48.414;9.118;2023-03-01T06:50:42;-1.70;98.00
1155;DHT22;566;48.414;9.118;2023-03-01T06:53:10;-1.70;98.00
1155;DHT22;566;48.414;9.118;2023-03-01T06:55:36;-1.70;98.00
1155;DHT22;566;48.414;9.118;2023-03-01T06:58:03;-1.60;98.00
1155;DHT22;566;48.414;9.118;2023-03-01T07:00:29;-1.60;98.00
1155;DHT22;566;48.414;9.118;2023-03-01T07:02:57;-1.50;98.00
1155;DHT22;566;48.414;9.118;2023-03-01T07:05:23;-1.50;98.00
1155;DHT22;566;48.414;9.118;2023-03-01T07:07:48;-1.40;98.00
1155;DHT22;566;48.414;9.118;2023-03-01T07:10:14;-1.40;98.00
1155;DHT22;566;48.414;9.118;2023-03-01T07:12:39;-1.30;98.00
1155;DHT22;566;48.414;9.118;2023-03-01T07:15:08;-1.20;98.00
1155;DHT22;566;48.414;9.118;2023-03-01T07:17:34;-1.20;98.00
1155;DHT22;566;48.414;9.118;2023-03-01T07:20:00;-1.10;98.00
1155;DHT22;566;48.414;9.118;2023-03-01T07:22:29;-1.10;98.00
1155;DHT22;566;48.414;9.118;2023-03-01T07:24:54;-1.10;98.00
1155;DHT22;566;48.414;9.118;2023-03-01T07:27:20;-1.20;98.00
1155;DHT22;566;48.414;9.118;2023-03-01T07:29:45;-1.30;98.00
1155;DHT22;566;48.414;9.118;2023-03-01T07:32:11;-1.30;98.00
1155;DHT22;566;48.414;9.118;2023-03-01T07:34:37;-1.30;98.00
1155;DHT22;566;48.414;9.118;2023-03-01T07:37:05;-1.20;98.00
1155;DHT22;566;48.414;9.118;2023-03-01T07:39:31;-1.20;98.00
1155;DHT22;566;48.414;9.118;2023-03-01T07:41:56;-1.30;98.00
1155;DHT22;566;48.414;9.118;2023-03-01T07:44:22;-1.20;98.00
1155;DHT22;566;48.414;9.118;2023-03-01T07:46:48;-1.20;98.00
1155;DHT22;566;48.414;9.118;2023-03-01T07:49:13;-1.10;98.00
1155;DHT22;566;48.414;9.118;2023-03-01T07:51:39;-1.10;98.00
1155;DHT22;566;48.414;9.118;2023-03-01T07:54:04;-1.10;98.00
1155;DHT22;566;48.414;9.118;2023-03-01T07:56:33;-0.90;98.00
1155;DHT22;566;48.414;9.118;2023-03-01T07:58:59;-0.70;98.00
1155;DHT22;566;48.414;9.118;2023-03-01T08:01:25;-0.50;98.00
1155;DHT22;566;48.414;9.118;2023-03-01T08:03:50;-0.30;98.00
1155;DHT22;566;48.414;9.118;2023-03-01T08:06:17;-0.10;98.00
1155;DHT22;566;48.414;9.118;2023-03-01T08:08:43;0.10;98.00
1155;DHT22;566;48.414;9.118;2023-03-01T08:11:11;0.20;97.70
1155;DHT22;566;48.414;9.118;2023-03-01T08:13:37;0.30;97.50
1155;DHT22;566;48.414;9.118;2023-03-01T08:16:05;0.50;96.70
1155;DHT22;566;48.414;9.118;2023-03-01T08:18:31;0.50;96.30
1155;DHT22;566;48.414;9.118;2023-03-01T08:21:02;0.50;96.50
1155;DHT22;566;48.414;9.118;2023-03-01T08:23:34;0.60;96.30
1155;DHT22;566;48.414;9.118;2023-03-01T08:26:19;0.50;96.30
1155;DHT22;566;48.414;9.118;2023-03-01T08:28:46;0.40;96.40
1155;DHT22;566;48.414;9.118;2023-03-01T08:31:15;0.50;96.40
1155;DHT22;566;48.414;9.118;2023-03-01T08:33:46;0.40;96.30
1155;DHT22;566;48.414;9.118;2023-03-01T08:36:20;0.40;96.70
1155;DHT22;566;48.414;9.118;2023-03-01T08:38:49;0.40;96.70
1155;DHT22;566;48.414;9.118;2023-03-01T08:41:15;0.50;96.30
1155;DHT22;566;48.414;9.118;2023-03-01T08:43:41;0.70;96.20
1155;DHT22;566;48.414;9.118;2023-03-01T08:46:06;1.10;96.00
1155;DHT22;566;48.414;9.118;2023-03-01T08:48:32;1.40;94.40
1155;DHT22;566;48.414;9.118;2023-03-01T08:51:10;1.80;93.90
1155;DHT22;566;48.414;9.118;2023-03-01T08:53:40;2.90;91.80
1155;DHT22;566;48.414;9.118;2023-03-01T08:56:07;4.00;88.10
1155;DHT22;566;48.414;9.118;2023-03-01T08:58:33;4.40;85.00
1155;DHT22;566;48.414;9.118;2023-03-01T09:00:58;3.80;85.30
1155;DHT22;566;48.414;9.118;2023-03-01T09:03:25;3.70;86.20
1155;DHT22;566;48.414;9.118;2023-03-01T09:05:51;3.80;86.50
1155;DHT22;566;48.414;9.118;2023-03-01T09:08:17;3.60;86.30
1155;DHT22;566;48.414;9.118;2023-03-01T09:10:43;3.60;86.80
1155;DHT22;566;48.414;9.118;2023-03-01T09:13:09;3.80;86.70
1155;DHT22;566;48.414;9.118;2023-03-01T09:15:36;4.50;85.30
1155;DHT22;566;48.414;9.118;2023-03-01T09:18:02;5.20;83.90
1155;DHT22;566;48.414;9.118;2023-03-01T09:20:31;5.70;81.20
1155;DHT22;566;48.414;9.118;2023-03-01T09:22:57;5.80;79.50
1155;DHT22;566;48.414;9.118;2023-03-01T09:25:23;5.30;79.40
1155;DHT22;566;48.414;9.118;2023-03-01T09:27:52;4.90;82.00
1155;DHT22;566;48.414;9.118;2023-03-01T09:30:18;5.10;80.70
1155;DHT22;566;48.414;9.118;2023-03-01T09:32:44;5.10;80.70
1155;DHT22;566;48.414;9.118;2023-03-01T09:35:13;5.80;79.30
1155;DHT22;566;48.414;9.118;2023-03-01T09:37:39;6.40;78.20
1155;DHT22;566;48.414;9.118;2023-03-01T09:40:19;6.90;76.50
1155;DHT22;566;48.414;9.118;2023-03-01T09:45:55;7.00;75.20
1155;DHT22;566;48.414;9.118;2023-03-01T09:48:30;6.60;75.80
1155;DHT22;566;48.414;9.118;2023-03-01T09:50:58;6.50;76.10
1155;DHT22;566;48.414;9.118;2023-03-01T09:53:32;7.00;75.40
1155;DHT22;566;48.414;9.118;2023-03-01T09:56:12;7.50;75.00
1155;DHT22;566;48.414;9.118;2023-03-01T09:58:56;7.20;74.20
1155;DHT22;566;48.414;9.118;2023-03-01T10:04:41;7.30;74.50
1155;DHT22;566;48.414;9.118;2023-03-01T10:07:17;7.30;73.60
1155;DHT22;566;48.414;9.118;2023-03-01T10:09:49;7.70;73.80
1155;DHT22;566;48.414;9.118;2023-03-01T10:12:35;7.80;74.30
1155;DHT22;566;48.414;9.118;2023-03-01T10:17:47;7.90;72.80
1155;DHT22;566;48.414;9.118;2023-03-01T10:20:33;7.80;73.00
1155;DHT22;566;48.414;9.118;2023-03-01T10:23:04;8.00;73.70
1155;DHT22;566;48.414;9.118;2023-03-01T10:25:54;8.20;72.40
1155;DHT22;566;48.414;9.118;2023-03-01T10:28:35;7.70;73.30
1155;DHT22;566;48.414;9.118;2023-03-01T10:31:04;7.40;73.70
1155;DHT22;566;48.414;9.118;2023-03-01T10:33:32;7.30;74.10
1155;DHT22;566;48.414;9.118;2023-03-01T10:36:00;7.70;74.70
1155;DHT22;566;48.414;9.118;2023-03-01T10:38:30;7.90;74.20
1155;DHT22;566;48.414;9.118;2023-03-01T10:43:32;8.60;73.00
1155;DHT22;566;48.414;9.118;2023-03-01T10:51:30;8.90;70.70
1155;DHT22;566;48.414;9.118;2023-03-01T10:53:56;8.70;73.30
1155;DHT22;566;48.414;9.118;2023-03-01T10:56:23;8.40;72.40
1155;DHT22;566;48.414;9.118;2023-03-01T10:58:59;8.40;72.70
1155;DHT22;566;48.414;9.118;2023-03-01T11:01:35;8.40;73.70
1155;DHT22;566;48.414;9.118;2023-03-01T11:06:29;8.80;72.20
1155;DHT22;566;48.414;9.118;2023-03-01T11:08:54;8.80;72.20
1155;DHT22;566;48.414;9.118;2023-03-01T11:11:34;8.80;71.10
1155;DHT22;566;48.414;9.118;2023-03-01T11:14:07;8.50;72.60
1155;DHT22;566;48.414;9.118;2023-03-01T11:16:39;8.30;72.90
1155;DHT22;566;48.414;9.118;2023-03-01T11:21:39;8.30;72.20
1155;DHT22;566;48.414;9.118;2023-03-01T11:24:10;8.50;73.20
1155;DHT22;566;48.414;9.118;2023-03-01T11:26:44;9.00;72.90
1155;DHT22;566;48.414;9.118;2023-03-01T11:29:39;8.90;70.50
1155;DHT22;566;48.414;9.118;2023-03-01T11:32:08;9.40;70.50
1155;DHT22;566;48.414;9.118;2023-03-01T11:34:46;9.70;69.20
1155;DHT22;566;48.414;9.118;2023-03-01T11:40:24;9.40;69.60
1155;DHT22;566;48.414;9.118;2023-03-01T11:45:36;9.40;70.30
1155;DHT22;566;48.414;9.118;2023-03-01T11:48:27;9.60;69.70
1155;DHT22;566;48.414;9.118;2023-03-01T11:50:58;9.30;69.30
1155;DHT22;566;48.414;9.118;2023-03-01T11:54:13;9.40;70.50
1155;DHT22;566;48.414;9.118;2023-03-01T11:56:50;9.60;68.30
1155;DHT22;566;48.414;9.118;2023-03-01T11:59:32;9.50;70.20
1155;DHT22;566;48.414;9.118;2023-03-01T12:02:36;9.40;69.50
1155;DHT22;566;48.414;9.118;2023-03-01T12:10:28;9.30;71.00
1155;DHT22;566;48.414;9.118;2023-03-01T12:22:30;9.00;71.40
1155;DHT22;566;48.414;9.118;2023-03-01T12:27:44;8.80;71.00
1155;DHT22;566;48.414;9.118;2023-03-01T12:38:59;9.80;69.70
1155;DHT22;566;48.414;9.118;2023-03-01T12:44:24;10.00;69.10
1155;DHT22;566;48.414;9.118;2023-03-01T12:49:38;9.30;68.90
1155;DHT22;566;48.414;9.118;2023-03-01T12:52:13;9.30;72.30
1155;DHT22;566;48.414;9.118;2023-03-01T12:54:40;9.50;70.70
1155;DHT22;566;48.414;9.118;2023-03-01T12:57:24;9.40;70.60
1155;DHT22;566;48.414;9.118;2023-03-01T13:05:39;9.60;69.70
1155;DHT22;566;48.414;9.118;2023-03-01T13:08:32;9.50;70.50
1155;DHT22;566;48.414;9.118;2023-03-01T13:11:04;9.20;70.30
1155;DHT22;566;48.414;9.118;2023-03-01T13:13:30;9.10;70.60
1155;DHT22;566;48.414;9.118;2023-03-01T13:15:56;9.30;72.70
1155;DHT22;566;48.414;9.118;2023-03-01T13:20:54;9.00;70.90
1155;DHT22;566;48.414;9.118;2023-03-01T13:26:07;8.50;72.40
1155;DHT22;566;48.414;9.118;2023-03-01T13:33:47;8.60;73.00
1155;DHT22;566;48.414;9.118;2023-03-01T13:38:59;8.60;73.00
1155;DHT22;566;48.414;9.118;2023-03-01T13:44:42;9.00;72.50
1155;DHT22;566;48.414;9.118;2023-03-01T13:49:47;9.30;73.70
1155;DHT22;566;48.414;9.118;2023-03-01T13:52:40;9.60;73.70
1155;DHT22;566;48.414;9.118;2023-03-01T13:55:17;9.70;70.20
1155;DHT22;566;48.414;9.118;2023-03-01T13:57:47;9.50;72.50
1155;DHT22;566;48.414;9.118;2023-03-01T14:00:36;9.50;70.70
1155;DHT22;566;48.414;9.118;2023-03-01T14:05:34;9.80;70.60
1155;DHT22;566;48.414;9.118;2023-03-01T14:08:02;9.90;70.30
1155;DHT22;566;48.414;9.118;2023-03-01T14:10:44;9.80;69.80
1155;DHT22;566;48.414;9.118;2023-03-01T14:18:52;9.60;71.30
1155;DHT22;566;48.414;9.118;2023-03-01T14:21:20;9.90;71.50
1155;DHT22;566;48.414;9.118;2023-03-01T14:23:46;10.00;70.40
1155;DHT22;566;48.414;9.118;2023-03-01T14:26:13;10.10;69.40
1155;DHT22;566;48.414;9.118;2023-03-01T14:28:45;10.50;68.30
1155;DHT22;566;48.414;9.118;2023-03-01T14:31:34;10.90;69.40
1155;DHT22;566;48.414;9.118;2023-03-01T14:34:00;11.00;68.20
1155;DHT22;566;48.414;9.118;2023-03-01T14:36:28;10.90;67.80
1155;DHT22;566;48.414;9.118;2023-03-01T14:38:54;10.70;69.10
1155;DHT22;566;48.414;9.118;2023-03-01T14:41:25;11.20;69.20
1155;DHT22;566;48.414;9.118;2023-03-01T14:43:57;11.50;67.90
1155;DHT22;566;48.414;9.118;2023-03-01T14:46:36;11.40;66.90
1155;DHT22;566;48.414;9.118;2023-03-01T14:49:17;11.20;67.20
1155;DHT22;566;48.414;9.118;2023-03-01T14:52:03;11.10;65.40
1155;DHT22;566;48.414;9.118;2023-03-01T14:57:03;11.00;67.10
1155;DHT22;566;48.414;9.118;2023-03-01T14:59:29;11.20;68.40
1155;DHT22;566;48.414;9.118;2023-03-01T15:01:57;11.50;66.40
1155;DHT22;566;48.414;9.118;2023-03-01T15:04:24;11.90;66.30
1155;DHT22;566;48.414;9.118;2023-03-01T15:06:52;11.60;65.10
1155;DHT22;566;48.414;9.118;2023-03-01T15:09:20;11.30;66.50
1155;DHT22;566;48.414;9.118;2023-03-01T15:11:46;11.30;67.80
1155;DHT22;566;48.414;9.118;2023-03-01T15:14:39;11.10;67.60
1155;DHT22;566;48.414;9.118;2023-03-01T15:17:21;11.20;65.40
1155;DHT22;566;48.414;9.118;2023-03-01T15:19:48;10.60;67.10
1155;DHT22;566;48.414;9.118;2023-03-01T15:22:15;10.50;68.90
1155;DHT22;566;48.414;9.118;2023-03-01T15:24:47;10.80;69.00
1155;DHT22;566;48.414;9.118;2023-03-01T15:27:16;11.10;67.80
1155;DHT22;566;48.414;9.118;2023-03-01T15:29:48;11.60;66.40
1155;DHT22;566;48.414;9.118;2023-03-01T15:32:30;11.30;66.10
1155;DHT22;566;48.414;9.118;2023-03-01T15:34:57;11.10;66.30
1155;DHT22;566;48.414;9.118;2023-03-01T15:37:48;10.90;66.20
1155;DHT22;566;48.414;9.118;2023-03-01T15:40:27;11.20;67.70
1155;DHT22;566;48.414;9.118;2023-03-01T15:45:25;10.70;65.70
1155;DHT22;566;48.414;9.118;2023-03-01T15:50:41;10.20;67.70
1155;DHT22;566;48.414;9.118;2023-03-01T15:53:13;9.90;68.30
1155;DHT22;566;48.414;9.118;2023-03-01T15:55:40;9.70;69.40
1155;DHT22;566;48.414;9.118;2023-03-01T15:58:10;9.80;70.30
1155;DHT22;566;48.414;9.118;2023-03-01T16:00:37;10.10;69.30
1155;DHT22;566;48.414;9.118;2023-03-01T16:03:04;10.10;69.30
1155;DHT22;566;48.414;9.118;2023-03-01T16:05:34;9.90;70.20
1155;DHT22;566;48.414;9.118;2023-03-01T16:08:01;9.80;69.10
1155;DHT22;566;48.414;9.118;2023-03-01T16:10:27;9.80;69.60
1155;DHT22;566;48.414;9.118;2023-03-01T16:12:56;9.50;70.00
1155;DHT22;566;48.414;9.118;2023-03-01T16:15:30;9.40;69.80
1155;DHT22;566;48.414;9.118;2023-03-01T16:17:57;9.40;70.80
1155;DHT22;566;48.414;9.118;2023-03-01T16:20:23;9.10;70.20
1155;DHT22;566;48.414;9.118;2023-03-01T16:22:49;8.90;71.30
1155;DHT22;566;48.414;9.118;2023-03-01T16:25:17;8.60;72.00
1155;DHT22;566;48.414;9.118;2023-03-01T16:27:44;8.40;71.90
1155;DHT22;566;48.414;9.118;2023-03-01T16:30:10;7.70;73.40
1155;DHT22;566;48.414;9.118;2023-03-01T16:32:44;7.00;75.20
1155;DHT22;566;48.414;9.118;2023-03-01T16:35:14;6.40;76.40
1155;DHT22;566;48.414;9.118;2023-03-01T16:37:40;6.10;78.30
1155;DHT22;566;48.414;9.118;2023-03-01T16:42:42;5.60;80.00
1155;DHT22;566;48.414;9.118;2023-03-01T16:45:08;5.30;80.80
1155;DHT22;566;48.414;9.118;2023-03-01T16:47:34;5.10;81.80
1155;DHT22;566;48.414;9.118;2023-03-01T16:50:00;4.90;82.40
1155;DHT22;566;48.414;9.118;2023-03-01T16:52:26;4.70;82.40
1155;DHT22;566;48.414;9.118;2023-03-01T16:54:52;4.60;83.00
1155;DHT22;566;48.414;9.118;2023-03-01T16:57:18;4.50;83.90
1155;DHT22;566;48.414;9.118;2023-03-01T16:59:44;4.30;84.30
1155;DHT22;566;48.414;9.118;2023-03-01T17:02:11;4.10;85.30
1155;DHT22;566;48.414;9.118;2023-03-01T17:04:40;3.90;86.00
1155;DHT22;566;48.414;9.118;2023-03-01T17:07:06;3.60;86.50
1155;DHT22;566;48.414;9.118;2023-03-01T17:09:36;3.40;87.50
1155;DHT22;566;48.414;9.118;2023-03-01T17:12:02;3.30;88.20
1155;DHT22;566;48.414;9.118;2023-03-01T17:14:28;3.20;88.40
1155;DHT22;566;48.414;9.118;2023-03-01T17:16:54;3.10;89.20
1155;DHT22;566;48.414;9.118;2023-03-01T17:19:20;2.90;89.70
1155;DHT22;566;48.414;9.118;2023-03-01T17:21:45;2.90;90.00
1155;DHT22;566;48.414;9.118;2023-03-01T17:24:11;3.00;90.10
1155;DHT22;566;48.414;9.118;2023-03-01T17:26:37;2.90;89.80
1155;DHT22;566;48.414;9.118;2023-03-01T17:29:03;2.80;90.60
1155;DHT22;566;48.414;9.118;2023-03-01T17:31:31;2.70;90.80
1155;DHT22;566;48.414;9.118;2023-03-01T17:33:56;2.80;90.80
1155;DHT22;566;48.414;9.118;2023-03-01T17:36:22;2.70;90.80
1155;DHT22;566;48.414;9.118;2023-03-01T17:38:48;2.60;91.20
1155;DHT22;566;48.414;9.118;2023-03-01T17:41:14;2.60;91.60
1155;DHT22;566;48.414;9.118;2023-03-01T17:43:46;2.50;92.30
1155;DHT22;566;48.414;9.118;2023-03-01T17:46:12;2.50;93.20
1155;DHT22;566;48.414;9.118;2023-03-01T17:48:38;2.50;93.80
1155;DHT22;566;48.414;9.118;2023-03-01T17:51:09;2.50;94.00
1155;DHT22;566;48.414;9.118;2023-03-01T17:53:36;2.50;94.40
1155;DHT22;566;48.414;9.118;2023-03-01T17:56:06;2.50;94.10
1155;DHT22;566;48.414;9.118;2023-03-01T17:58:32;2.50;94.40
1155;DHT22;566;48.414;9.118;2023-03-01T18:01:19;2.50;94.40
1155;DHT22;566;48.414;9.118;2023-03-01T18:03:45;2.60;94.00
1155;DHT22;566;48.414;9.118;2023-03-01T18:08:38;2.70;93.80
1155;DHT22;566;48.414;9.118;2023-03-01T18:11:07;2.70;93.60
1155;DHT22;566;48.414;9.118;2023-03-01T18:13:33;2.70;93.60
1155;DHT22;566;48.414;9.118;2023-03-01T18:15:59;2.80;93.40
1155;DHT22;566;48.414;9.118;2023-03-01T18:18:28;2.80;94.20
1155;DHT22;566;48.414;9.118;2023-03-01T18:20:58;2.70;93.90
1155;DHT22;566;48.414;9.118;2023-03-01T18:23:24;2.60;94.70
1155;DHT22;566;48.414;9.118;2023-03-01T18:25:50;2.60;95.00
1155;DHT22;566;48.414;9.118;2023-03-01T18:28:18;2.50;95.10
1155;DHT22;566;48.414;9.118;2023-03-01T18:30:43;2.50;95.20